Time;durP1;ratioP1;P1;durP2;ratioP2;P2;SDS_P1;SDS_P2;PMS_P1;PMS_P2;Temp;Humidity;BMP_temperature;BMP_pressure;BME280_temperature;BME280_humidity;BME280_pressure;Samples;Min_cycle;Max_cycle;Signal;HPM_P1;HPM_P2
2023/10/09 00:02:09;;;;;;;0.40;0.20;;;;;;;14.16;100.00;100808.56;4994215;28;21006;-50
2023/10/09 00:04:38;;;;;;;0.40;0.20;;;;;;;14.17;100.00;100799.63;4994510;28;20520;-50
2023/10/09 00:07:08;;;;;;;0.40;0.20;;;;;;;14.12;100.00;100801.59;4994190;28;20886;-51
2023/10/09 00:09:47;;;;;;;0.40;0.20;;;;;;;14.16;100.00;100795.22;4994103;28;20485;-51
2023/10/09 00:12:22;;;;;;;0.40;0.20;;;;;;;14.19;100.00;100798.63;4972478;28;20997;-51
2023/10/09 00:14:50;;;;;;;0.40;0.20;;;;;;;14.20;100.00;100795.03;4983950;28;20427;-52
2023/10/09 00:17:17;;;;;;;0.40;0.20;;;;;;;14.12;100.00;100796.25;4990064;28;20478;-52
2023/10/09 00:19:52;;;;;;;0.40;0.20;;;;;;;14.19;100.00;100789.75;4991470;28;20483;-52
2023/10/09 00:22:26;;;;;;;0.40;0.20;;;;;;;14.12;100.00;100783.75;4994249;28;20493;-52
2023/10/09 00:25:10;;;;;;;0.40;0.20;;;;;;;14.20;100.00;100780.78;4993989;28;20452;-52
2023/10/09 00:27:42;;;;;;;0.40;0.20;;;;;;;14.30;100.00;100786.69;4993676;28;20474;-51
2023/10/09 00:30:21;;;;;;;0.40;0.20;;;;;;;14.28;100.00;100780.53;4976582;28;20449;-52
2023/10/09 00:33:07;;;;;;;0.40;0.20;;;;;;;14.31;100.00;100780.41;4993872;28;20449;-52
2023/10/09 00:35:46;;;;;;;0.40;0.20;;;;;;;14.32;100.00;100769.66;4993810;28;20474;-52
2023/10/09 00:43:36;;;;;;;0.40;0.20;;;;;;;14.27;100.00;100774.31;4993571;28;20493;-51
2023/10/09 00:46:23;;;;;;;0.40;0.20;;;;;;;14.27;100.00;100768.09;4968896;28;20461;-52
2023/10/09 00:48:57;;;;;;;0.40;0.20;;;;;;;14.29;100.00;100768.91;4993309;28;20469;-52
2023/10/09 00:51:24;;;;;;;0.40;0.20;;;;;;;14.36;100.00;100776.63;4993429;28;20552;-52
2023/10/09 00:54:41;;;;;;;0.40;0.20;;;;;;;14.38;100.00;100761.41;4993610;28;20477;-52
2023/10/09 00:56:58;;;;;;;0.40;0.20;;;;;;;14.48;100.00;100753.94;4990415;28;20457;-50
2023/10/09 00:59:25;;;;;;;0.40;0.20;;;;;;;14.47;100.00;100753.09;4993279;28;20445;-50
2023/10/09 01:02:05;;;;;;;0.40;0.20;;;;;;;14.42;100.00;100752.34;4993376;28;20481;-49
2023/10/09 01:04:32;;;;;;;0.40;0.20;;;;;;;14.47;100.00;100746.84;4993147;28;20494;-49
2023/10/09 01:07:10;;;;;;;0.40;0.20;;;;;;;14.41;100.00;100752.41;4993188;28;20461;-49
2023/10/09 01:09:43;;;;;;;0.40;0.20;;;;;;;14.46;100.00;100746.00;4992720;28;21013;-50
2023/10/09 01:12:16;;;;;;;0.40;0.20;;;;;;;14.52;100.00;100743.06;4973710;28;20452;-49
2023/10/09 01:14:44;;;;;;;0.40;0.20;;;;;;;14.54;100.00;100734.16;4981709;28;20450;-49
2023/10/09 01:17:11;;;;;;;0.40;0.20;;;;;;;14.54;100.00;100731.47;4990022;28;20462;-49
2023/10/09 01:19:38;;;;;;;0.40;0.20;;;;;;;14.62;100.00;100735.56;4988959;28;20489;-49
2023/10/09 01:22:12;;;;;;;0.40;0.20;;;;;;;14.56;100.00;100726.94;4993018;28;20905;-49
2023/10/09 01:24:40;;;;;;;0.40;0.20;;;;;;;14.40;100.00;100716.78;4993037;28;20814;-49
2023/10/09 01:27:16;;;;;;;0.40;0.30;;;;;;;14.32;100.00;100718.84;4993138;28;20449;-49
2023/10/09 01:29:44;;;;;;;0.40;0.20;;;;;;;14.42;100.00;100716.72;4992905;28;20540;-49
2023/10/09 01:32:17;;;;;;;0.40;0.20;;;;;;;14.44;100.00;100728.25;4992792;28;20949;-49
2023/10/09 01:34:50;;;;;;;0.40;0.20;;;;;;;14.28;100.00;100719.91;4992833;28;20446;-49
2023/10/09 01:37:22;;;;;;;0.40;0.20;;;;;;;14.39;100.00;100719.47;4992824;28;20469;-49
2023/10/09 01:39:51;;;;;;;0.40;0.20;;;;;;;14.41;100.00;100726.53;4992984;28;20449;-49
2023/10/09 01:42:35;;;;;;;0.40;0.20;;;;;;;14.33;100.00;100717.03;4992480;28;21006;-49
2023/10/09 01:45:11;;;;;;;1.30;1.30;;;;;;;14.39;100.00;100716.81;4992502;28;20452;-51
2023/10/09 01:47:38;;;;;;;0.40;0.20;;;;;;;14.31;100.00;100722.47;4992559;28;20520;-49
2023/10/09 01:50:11;;;;;;;0.40;0.20;;;;;;;14.28;100.00;100719.91;4992931;28;20449;-49
2023/10/09 01:52:38;;;;;;;0.40;0.20;;;;;;;14.36;100.00;100730.28;4992696;28;20445;-49
2023/10/09 01:55:07;;;;;;;0.40;0.20;;;;;;;14.39;100.00;100720.38;4992625;28;20504;-49
2023/10/09 01:57:34;;;;;;;0.40;0.20;;;;;;;14.44;100.00;100713.06;4992600;28;20560;-49
2023/10/09 02:00:02;;;;;;;0.40;0.20;;;;;;;14.49;100.00;100716.44;4992400;28;20457;-49
2023/10/09 02:02:35;;;;;;;0.40;0.20;;;;;;;14.39;100.00;100709.69;4992620;28;20476;-49
2023/10/09 02:07:44;;;;;;;1.17;1.17;;;;;;;14.23;100.00;100713.84;4992351;28;20472;-49
2023/10/09 02:13:09;;;;;;;0.40;0.20;;;;;;;14.19;100.00;100712.22;4973359;28;20537;-49
2023/10/09 02:18:18;;;;;;;0.40;0.20;;;;;;;14.22;100.00;100712.09;4988766;28;20523;-49
2023/10/09 02:20:48;;;;;;;0.40;0.20;;;;;;;14.11;100.00;100708.94;4996255;28;20459;-49
2023/10/09 02:23:20;;;;;;;0.40;0.20;;;;;;;14.17;100.00;100720.28;4996247;28;20579;-48
2023/10/09 02:25:53;;;;;;;0.40;0.20;;;;;;;14.11;100.00;100711.59;4979073;28;20449;-49
2023/10/09 02:28:19;;;;;;;0.40;0.20;;;;;;;14.00;100.00;100716.50;4996129;28;20469;-49
2023/10/09 02:30:47;;;;;;;0.57;0.57;;;;;;;14.10;100.00;100715.22;4996229;28;20544;-49
2023/10/09 02:33:27;;;;;;;0.40;0.20;;;;;;;14.03;100.00;100713.69;4995973;28;20473;-49
2023/10/09 02:35:55;;;;;;;0.40;0.20;;;;;;;14.04;100.00;100718.13;4996167;28;20449;-49
2023/10/09 02:38:23;;;;;;;0.40;0.20;;;;;;;14.03;100.00;100719.03;4996075;28;20473;-49
2023/10/09 02:43:46;;;;;;;0.40;0.20;;;;;;;14.00;100.00;100712.00;4995671;28;20554;-49
2023/10/09 02:46:29;;;;;;;0.40;0.20;;;;;;;13.88;100.00;100702.63;4995809;28;20931;-49
2023/10/09 02:49:03;;;;;;;0.40;0.20;;;;;;;13.85;100.00;100705.41;4995604;28;20503;-49
2023/10/09 02:53:58;;;;;;;0.40;0.20;;;;;;;13.85;100.00;100697.41;4996116;28;20461;-49
2023/10/09 02:56:36;;;;;;;0.40;0.30;;;;;;;13.97;100.00;100689.84;4995588;28;20464;-50
2023/10/09 02:59:07;;;;;;;0.40;0.20;;;;;;;14.00;100.00;100703.13;4996250;28;20461;-48
2023/10/09 03:01:34;;;;;;;0.40;0.20;;;;;;;13.94;100.00;100691.69;4995391;28;20916;-49
2023/10/09 03:04:02;;;;;;;1.07;1.07;;;;;;;14.01;100.00;100680.81;4995513;28;20543;-49
2023/10/09 03:06:33;;;;;;;0.40;0.20;;;;;;;13.99;100.00;100696.03;4995171;28;20450;-49
2023/10/09 03:09:01;;;;;;;0.47;0.40;;;;;;;13.97;100.00;100689.84;4995416;28;20484;-49
2023/10/09 03:11:27;;;;;;;0.40;0.20;;;;;;;14.07;100.00;100685.91;4980419;28;20822;-49
2023/10/09 03:13:55;;;;;;;0.40;0.20;;;;;;;14.07;100.00;100683.25;4982530;28;20541;-49
2023/10/09 03:16:22;;;;;;;0.40;0.20;;;;;;;13.94;100.00;100685.50;4991541;28;20447;-49
2023/10/09 03:18:52;;;;;;;0.40;0.20;;;;;;;14.07;100.00;100676.09;4988268;28;20500;-49
2023/10/09 03:21:19;;;;;;;0.40;0.20;;;;;;;14.13;100.00;100667.00;4995069;28;20825;-49
2023/10/09 03:23:50;;;;;;;0.40;0.30;;;;;;;14.07;100.00;100675.22;4995338;28;20493;-49
2023/10/09 03:26:17;;;;;;;0.40;0.20;;;;;;;14.05;100.00;100677.09;4995248;28;20803;-49
2023/10/09 03:28:48;;;;;;;0.40;0.20;;;;;;;14.02;100.00;100670.06;4995260;28;20477;-49
2023/10/09 03:31:15;;;;;;;0.40;0.20;;;;;;;14.00;100.00;100669.25;4995196;28;20801;-49
2023/10/09 03:33:42;;;;;;;0.40;0.20;;;;;;;14.01;100.00;100667.44;4994918;28;20454;-50
2023/10/09 03:36:11;;;;;;;0.40;0.20;;;;;;;14.00;100.00;100671.06;4995036;28;20548;-49
2023/10/09 03:38:38;;;;;;;0.40;0.20;;;;;;;13.88;100.00;100664.34;4994822;28;20983;-49
2023/10/09 03:41:06;;;;;;;0.40;0.20;;;;;;;13.83;100.00;100660.94;4994826;28;20508;-48
2023/10/09 03:43:40;;;;;;;0.40;0.20;;;;;;;13.68;100.00;100665.03;4994838;28;20520;-49
2023/10/09 03:46:32;;;;;;;0.40;0.20;;;;;;;13.58;100.00;100666.31;4968789;28;20535;-49
2023/10/09 03:49:02;;;;;;;0.40;0.20;;;;;;;13.73;100.00;100659.56;4994543;28;21118;-49
2023/10/09 03:51:29;;;;;;;0.40;0.20;;;;;;;13.53;100.00;100645.09;4994895;28;20545;-49
2023/10/09 03:53:56;;;;;;;0.40;0.20;;;;;;;13.47;100.00;100650.66;4994709;28;20453;-48
2023/10/09 03:56:23;;;;;;;0.40;0.20;;;;;;;13.62;100.00;100651.91;4994632;28;20573;-49
2023/10/09 03:58:50;;;;;;;0.40;0.20;;;;;;;13.52;100.00;100654.03;4994229;28;21004;-49
2023/10/09 04:01:28;;;;;;;0.40;0.20;;;;;;;13.51;100.00;100651.41;4994534;28;21050;-49
2023/10/09 04:04:02;;;;;;;0.40;0.20;;;;;;;13.38;100.00;100653.63;4994383;28;20493;-49
2023/10/09 04:06:34;;;;;;;0.40;0.20;;;;;;;13.48;100.00;100654.19;4994255;28;20544;-49
2023/10/09 04:14:34;;;;;;;0.40;0.20;;;;;;;13.88;100.00;100659.88;4981212;28;20454;-48
2023/10/09 04:17:32;;;;;;;0.40;0.20;;;;;;;13.75;100.00;100663.03;4992386;28;20541;-49
2023/10/09 04:22:39;;;;;;;0.40;0.20;;;;;;;13.98;100.00;100662.19;4994004;28;20527;-49
2023/10/09 04:25:19;;;;;;;0.40;0.20;;;;;;;13.88;100.00;100667.88;4981499;28;20460;-49
2023/10/09 04:27:46;;;;;;;0.40;0.20;;;;;;;14.01;100.00;100660.28;4993702;28;21005;-49
2023/10/09 04:30:15;;;;;;;0.40;0.20;;;;;;;13.99;100.00;100669.31;4994093;28;20449;-49
2023/10/09 04:32:45;;;;;;;0.80;0.80;;;;;;;14.06;100.00;100671.69;4993896;28;20460;-48
2023/10/09 04:35:26;;;;;;;0.40;0.20;;;;;;;13.98;100.00;100655.06;4993995;28;20463;-49
2023/10/09 04:38:05;;;;;;;0.30;0.20;;;;;;;13.97;100.00;100657.78;4993603;28;21061;-48
2023/10/09 04:40:48;;;;;;;0.40;0.20;;;;;;;13.93;100.00;100663.25;4993197;28;20456;-49
2023/10/09 04:43:20;;;;;;;0.40;0.20;;;;;;;13.89;100.00;100672.31;4993645;28;21002;-49
2023/10/09 04:46:07;;;;;;;0.30;0.20;;;;;;;13.90;100.00;100679.38;4979809;28;20454;-49
2023/10/09 04:48:38;;;;;;;0.40;0.20;;;;;;;13.97;100.00;100672.00;4993412;28;21013;-49
2023/10/09 04:51:21;;;;;;;0.40;0.20;;;;;;;13.97;100.00;100684.50;4993637;28;20442;-49
2023/10/09 04:54:12;;;;;;;0.40;0.20;;;;;;;13.89;100.00;100674.97;4980473;28;20446;-49
2023/10/09 04:56:51;;;;;;;0.37;0.20;;;;;;;13.86;100.00;100677.75;4992969;28;20948;-49
2023/10/09 04:59:18;;;;;;;0.40;0.20;;;;;;;13.83;100.00;100675.19;4993544;28;20465;-49
2023/10/09 05:01:57;;;;;;;0.40;0.20;;;;;;;13.75;100.00;100677.28;4993484;28;20843;-49
2023/10/09 05:07:22;;;;;;;0.40;0.20;;;;;;;13.90;100.00;100676.72;4993042;28;20449;-49
2023/10/09 05:09:56;;;;;;;0.40;0.20;;;;;;;13.80;100.00;100663.72;4988877;28;20461;-49
2023/10/09 05:12:28;;;;;;;0.40;0.20;;;;;;;13.88;100.00;100672.34;4973878;28;20450;-49
2023/10/09 05:15:13;;;;;;;0.40;0.20;;;;;;;14.00;100.00;100669.25;4983758;28;20453;-49
2023/10/09 05:17:39;;;;;;;0.40;0.20;;;;;;;14.04;100.00;100680.69;4986123;28;20491;-49
2023/10/09 05:22:58;;;;;;;0.40;0.20;;;;;;;14.13;100.00;100678.56;4993027;28;20432;-48
2023/10/09 05:28:31;;;;;;;0.40;0.20;;;;;;;14.18;100.00;100679.25;4992617;28;20994;-49
2023/10/09 05:31:08;;;;;;;0.40;0.20;;;;;;;14.00;100.00;100673.72;4992881;28;20457;-49
2023/10/09 05:33:36;;;;;;;0.40;0.20;;;;;;;14.20;100.00;100672.03;4993085;28;20499;-48
2023/10/09 05:36:14;;;;;;;0.40;0.20;;;;;;;14.06;100.00;100674.34;4993058;28;20453;-49
2023/10/09 05:38:46;;;;;;;0.40;0.20;;;;;;;14.04;100.00;100667.31;4992841;28;20967;-48
2023/10/09 05:41:45;;;;;;;0.40;0.20;;;;;;;14.04;100.00;100661.97;4993195;28;20519;-48
2023/10/09 05:47:31;;;;;;;0.40;0.20;;;;;;;14.15;100.00;100668.69;4992421;28;20449;-49
2023/10/09 05:55:20;;;;;;;0.30;0.20;;;;;;;14.29;100.00;100680.66;4996568;28;20472;-51
2023/10/09 06:06:02;;;;;;;0.40;0.20;;;;;;;14.33;100.00;100683.16;4996483;28;20837;-48
2023/10/09 06:19:26;;;;;;;0.30;0.20;;;;;;;14.45;100.00;100674.69;4985326;28;20445;-50
2023/10/09 06:24:42;;;;;;;0.40;0.20;;;;;;;14.47;100.00;100680.84;4995875;28;21014;-49
2023/10/09 06:29:50;;;;;;;0.40;0.20;;;;;;;14.62;100.00;100694.56;4996138;28;20449;-49
2023/10/09 06:34:56;;;;;;;0.40;0.20;;;;;;;14.63;100.00;100699.88;4996021;28;20904;-49
2023/10/09 06:42:33;;;;;;;0.30;0.20;;;;;;;14.55;100.00;100699.31;4996017;28;20460;-49
2023/10/09 06:47:55;;;;;;;0.40;0.20;;;;;;;14.85;100.00;100701.72;4995886;28;20469;-49
2023/10/09 06:50:26;;;;;;;0.40;0.30;;;;;;;14.89;100.00;100708.69;4995626;28;20903;-49
2023/10/09 06:55:51;;;;;;;0.40;0.20;;;;;;;14.83;100.00;100704.44;4995439;28;21014;-49
2023/10/09 06:58:28;;;;;;;0.40;0.20;;;;;;;14.91;100.00;100707.69;4995567;28;20559;-49
2023/10/09 07:03:34;;;;;;;0.40;0.20;;;;;;;15.02;100.00;100713.47;4995311;28;20448;-49
2023/10/09 07:06:09;;;;;;;0.40;0.20;;;;;;;15.09;100.00;100722.16;4995519;28;20445;-49
2023/10/09 07:08:37;;;;;;;0.40;0.20;;;;;;;15.15;100.00;100721.91;4995501;28;20484;-50
2023/10/09 07:11:57;;;;;;;0.40;0.20;;;;;;;15.18;100.00;100715.53;4983636;28;20483;-49
2023/10/09 07:14:32;;;;;;;0.40;0.20;;;;;;;15.24;100.00;100713.50;4982332;28;20535;-49
2023/10/09 07:17:00;;;;;;;0.40;0.20;;;;;;;15.26;100.00;100703.59;4969487;28;20846;-49
2023/10/09 07:22:23;;;;;;;0.40;0.20;;;;;;;15.29;100.00;100702.59;4995350;28;20507;-49
2023/10/09 07:25:14;;;;;;;0.40;0.20;;;;;;;15.32;100.00;100694.41;4994858;28;20833;-49
2023/10/09 07:27:43;;;;;;;0.40;0.20;;;;;;;15.41;100.00;100699.41;4994490;28;20548;-49
2023/10/09 07:38:28;;;;;;;0.40;0.20;;;;;;;15.73;100.00;100698.06;4995326;28;20494;-49
2023/10/09 07:41:33;;;;;;;0.40;0.20;;;;;;;15.78;100.00;100706.78;4994920;28;20453;-49
2023/10/09 07:49:08;;;;;;;0.40;0.20;;;;;;;16.02;100.00;100714.66;4994776;28;20502;-49
2023/10/09 07:51:43;;;;;;;0.60;0.60;;;;;;;16.05;100.00;100715.44;4977536;28;20449;-50
2023/10/09 07:54:14;;;;;;;0.40;0.20;;;;;;;16.08;100.00;100701.00;4994464;28;20416;-49
2023/10/09 07:56:45;;;;;;;0.40;0.20;;;;;;;16.15;100.00;100711.38;4994456;28;20982;-49
2023/10/09 07:59:17;;;;;;;0.40;0.20;;;;;;;16.22;100.00;100704.81;4994389;28;20441;-49
2023/10/09 08:01:59;;;;;;;0.60;0.60;;;;;;;16.39;100.00;100712.09;4994685;28;20457;-49
2023/10/09 08:04:39;;;;;;;0.40;0.20;;;;;;;16.54;100.00;100715.88;4994127;28;20911;-49
2023/10/09 08:07:09;;;;;;;1.63;1.53;;;;;;;16.70;100.00;100734.84;4994267;28;20453;-49
2023/10/09 08:18:03;;;;;;;0.40;0.20;;;;;;;17.29;100.00;100720.38;4986754;28;20555;-49
2023/10/09 08:23:48;;;;;;;0.40;0.20;;;;;;;17.56;99.41;100732.44;4993925;28;20424;-49
2023/10/09 08:26:47;;;;;;;0.40;0.30;;;;;;;17.83;98.66;100732.03;4976693;28;20968;-49
2023/10/09 08:29:17;;;;;;;0.40;0.20;;;;;;;17.93;97.70;100736.84;4993738;28;20480;-49
2023/10/09 08:31:46;;;;;;;0.40;0.20;;;;;;;17.96;97.94;100736.69;4993844;28;20527;-48
2023/10/09 08:34:27;;;;;;;0.40;0.20;;;;;;;18.03;97.82;100729.16;4993980;28;20541;-48
2023/10/09 08:36:56;;;;;;;0.40;0.20;;;;;;;18.15;97.62;100724.97;4993772;28;20961;-50
2023/10/09 08:39:26;;;;;;;0.40;0.20;;;;;;;18.21;96.62;100722.78;4993689;28;20962;-49
2023/10/09 08:41:57;;;;;;;0.40;0.20;;;;;;;18.28;96.74;100726.03;4993910;28;20452;-49
2023/10/09 08:44:26;;;;;;;0.40;0.20;;;;;;;18.30;96.04;100724.13;4993178;28;21089;-49
2023/10/09 08:46:57;;;;;;;0.40;0.20;;;;;;;18.39;95.50;100726.34;4993906;28;20493;-48
2023/10/09 08:49:25;;;;;;;0.40;0.20;;;;;;;18.46;96.21;100724.19;4968475;28;20793;-49
2023/10/09 08:51:52;;;;;;;0.40;0.20;;;;;;;18.55;95.38;100715.59;4993465;28;20424;-48
2023/10/09 08:54:19;;;;;;;0.40;0.20;;;;;;;18.54;95.22;100719.25;4993645;28;20433;-50
2023/10/09 08:56:52;;;;;;;0.40;0.20;;;;;;;18.74;94.54;100737.03;4993426;28;21344;-48
2023/10/09 08:59:19;;;;;;;0.40;0.20;;;;;;;19.00;93.94;100744.53;5015077;23;20933;-51
2023/10/09 09:01:51;;;;;;;0.40;0.20;;;;;;;19.12;92.95;100734.91;4999654;28;20446;-51
2023/10/09 09:04:41;;;;;;;0.40;0.20;;;;;;;19.19;91.69;100720.13;5003553;28;20547;-51
2023/10/09 09:07:31;;;;;;;0.40;0.20;;;;;;;19.29;91.87;100736.63;5006349;28;20491;-51
2023/10/09 09:10:03;;;;;;;0.40;0.30;;;;;;;19.53;91.49;100744.16;4986516;28;20421;-51
2023/10/09 09:12:37;;;;;;;0.40;0.20;;;;;;;19.54;90.76;100739.63;4973847;28;20523;-51
2023/10/09 09:15:12;;;;;;;0.40;0.20;;;;;;;19.50;90.19;100732.69;4985128;28;20942;-51
2023/10/09 09:17:41;;;;;;;0.40;0.20;;;;;;;19.57;90.98;100739.47;4980127;28;20561;-51
2023/10/09 09:20:45;;;;;;;0.40;0.20;;;;;;;19.55;90.20;100744.09;4967674;28;20954;-51
2023/10/09 09:23:12;;;;;;;0.40;0.20;;;;;;;19.63;90.18;100744.53;4980254;28;20419;-51
2023/10/09 09:25:50;;;;;;;0.40;0.20;;;;;;;19.58;89.68;100743.91;4980927;28;20491;-51
2023/10/09 09:28:22;;;;;;;0.40;0.30;;;;;;;19.63;90.17;100752.63;4980816;28;20455;-51
2023/10/09 09:30:51;;;;;;;3.23;1.23;;;;;;;19.56;90.16;100753.94;4980072;28;20520;-51
2023/10/09 09:33:26;;;;;;;0.40;0.20;;;;;;;19.58;90.69;100752.00;4984490;28;20454;-51
2023/10/09 09:35:58;;;;;;;0.40;0.20;;;;;;;19.59;90.85;100755.56;4986408;28;20425;-51
2023/10/09 09:38:28;;;;;;;0.50;0.40;;;;;;;19.61;89.92;100759.94;4983669;28;20473;-51
2023/10/09 09:40:57;;;;;;;0.40;0.20;;;;;;;19.80;89.55;100757.88;4979861;28;20911;-51
2023/10/09 09:43:25;;;;;;;0.40;0.20;;;;;;;19.74;89.99;100750.16;4981606;28;20429;-51
2023/10/09 09:45:53;;;;;;;0.40;0.20;;;;;;;19.81;90.25;100747.97;4979721;28;20500;-51
2023/10/09 09:48:20;;;;;;;4.20;2.50;;;;;;;19.87;90.56;100752.97;4980919;28;20532;-51
2023/10/09 09:50:47;;;;;;;0.40;0.20;;;;;;;19.88;88.88;100768.25;4986263;28;20454;-51
2023/10/09 09:53:18;;;;;;;0.40;0.20;;;;;;;20.09;86.62;100768.75;4985950;28;20431;-51
2023/10/09 09:55:57;;;;;;;0.40;0.20;;;;;;;20.29;86.05;100763.03;4986227;28;20422;-52
2023/10/09 09:58:32;;;;;;;0.40;0.20;;;;;;;20.34;86.04;100763.63;4985788;28;20484;-51
2023/10/09 10:01:15;;;;;;;0.40;0.20;;;;;;;20.50;86.11;100765.41;4973128;28;20909;-51
2023/10/09 10:03:49;;;;;;;0.40;0.20;;;;;;;20.64;83.23;100768.97;4985796;28;20990;-51
2023/10/09 10:06:19;;;;;;;0.40;0.20;;;;;;;20.87;82.29;100762.13;4986116;28;20579;-51
2023/10/09 10:08:50;;;;;;;0.40;0.20;;;;;;;20.94;82.03;100774.25;4986190;28;20887;-51
2023/10/09 10:11:46;;;;;;;0.40;0.20;;;;;;;21.08;80.18;100767.97;4973948;28;20417;-51
2023/10/09 10:14:28;;;;;;;0.40;0.20;;;;;;;21.25;78.38;100780.47;4981654;28;20943;-52
2023/10/09 10:17:16;;;;;;;0.40;0.20;;;;;;;21.28;79.20;100775.72;4966535;28;20536;-51
2023/10/09 10:19:59;;;;;;;0.40;0.20;;;;;;;21.46;79.26;100770.03;4985885;28;20833;-51
2023/10/09 10:22:32;;;;;;;0.40;0.20;;;;;;;21.52;77.85;100757.00;4985174;28;20829;-51
2023/10/09 10:25:09;;;;;;;0.40;0.20;;;;;;;21.59;76.58;100757.44;4979309;28;21051;-51
2023/10/09 10:28:00;;;;;;;0.40;0.20;;;;;;;21.31;76.61;100758.41;4979232;28;20501;-52
2023/10/09 10:30:33;;;;;;;0.40;0.20;;;;;;;21.36;74.66;100761.66;4981241;28;20482;-51
2023/10/09 10:33:12;;;;;;;0.40;0.20;;;;;;;21.61;73.84;100755.50;4986033;28;20421;-51
2023/10/09 10:38:42;;;;;;;0.40;0.20;;;;;;;22.04;71.99;100720.09;4983992;28;20880;-52
2023/10/09 10:41:11;;;;;;;0.40;0.30;;;;;;;21.96;71.63;100715.22;4982610;28;20477;-52
2023/10/09 10:49:14;;;;;;;0.40;0.20;;;;;;;21.90;69.27;100702.09;4982643;28;20472;-52
2023/10/09 10:51:48;;;;;;;0.50;0.30;;;;;;;22.20;69.77;100701.81;4983439;28;20797;-51
2023/10/09 10:57:00;;;;;;;0.40;0.20;;;;;;;22.66;66.29;100709.41;4982418;28;20909;-52
2023/10/09 10:59:36;;;;;;;0.40;0.20;;;;;;;22.84;63.90;100715.34;4985593;28;20460;-52
2023/10/09 11:04:43;;;;;;;0.40;0.20;;;;;;;23.02;58.61;100717.56;4983515;28;20501;-52
2023/10/09 11:07:22;;;;;;;0.40;0.20;;;;;;;23.03;58.56;100718.47;4988913;28;20986;-52
2023/10/09 11:12:44;;;;;;;0.50;0.40;;;;;;;23.26;56.51;100712.19;4986835;28;20503;-52
2023/10/09 11:18:07;;;;;;;0.40;0.20;;;;;;;23.37;56.35;100711.38;4982049;28;20485;-52
2023/10/09 11:20:36;;;;;;;0.93;0.93;;;;;;;23.64;55.57;100692.19;4985094;28;20930;-52
2023/10/09 11:25:52;;;;;;;0.43;0.20;;;;;;;23.76;53.49;100680.38;4987138;28;20580;-52
2023/10/09 11:31:12;;;;;;;0.50;0.20;;;;;;;23.80;51.78;100694.56;4988822;28;20425;-52
2023/10/09 11:33:48;;;;;;;0.40;0.20;;;;;;;24.03;50.68;100688.22;4985965;28;20453;-52
2023/10/09 11:36:16;;;;;;;0.40;0.20;;;;;;;24.12;49.32;100690.22;4981791;28;20472;-52
2023/10/09 11:38:51;;;;;;;0.50;0.20;;;;;;;24.24;49.62;100683.78;4982786;28;20481;-52
2023/10/09 11:41:19;;;;;;;0.40;0.20;;;;;;;24.36;50.06;100678.41;4969317;28;20423;-52
2023/10/09 11:43:54;;;;;;;0.43;0.20;;;;;;;24.34;48.85;100683.97;4981949;28;20879;-52
2023/10/09 11:46:38;;;;;;;0.40;0.20;;;;;;;24.40;47.51;100679.91;4986318;28;20491;-52
2023/10/09 11:52:10;;;;;;;0.40;0.20;;;;;;;24.56;46.68;100668.69;4988051;28;20508;-52
2023/10/09 11:54:37;;;;;;;0.50;0.20;;;;;;;24.57;47.44;100656.81;4984937;28;20533;-52
2023/10/09 11:57:03;;;;;;;5.33;1.27;;;;;;;24.65;47.21;100657.91;4981284;28;20497;-52
2023/10/09 11:59:37;;;;;;;0.40;0.30;;;;;;;24.51;46.75;100661.72;4984077;28;20479;-52
2023/10/09 12:02:14;;;;;;;1.67;1.60;;;;;;;24.41;47.54;100651.75;4979581;28;20432;-52
2023/10/09 12:04:44;;;;;;;0.40;0.20;;;;;;;24.33;46.81;100644.19;4981390;28;20436;-52
2023/10/09 12:07:12;;;;;;;0.40;0.20;;;;;;;24.41;47.61;100640.88;4968802;28;20879;-52
2023/10/09 12:09:40;;;;;;;0.50;0.20;;;;;;;24.39;48.06;100643.69;4980840;28;20439;-52
2023/10/09 12:12:10;;;;;;;0.50;0.30;;;;;;;24.50;48.45;100643.69;4982225;28;20519;-52
2023/10/09 12:14:40;;;;;;;0.53;0.53;;;;;;;24.43;48.76;100647.91;4981033;28;20447;-52
2023/10/09 12:17:07;;;;;;;0.50;0.20;;;;;;;24.64;49.08;100641.72;4985795;28;20487;-52
2023/10/09 12:19:35;;;;;;;0.50;0.20;;;;;;;24.64;47.17;100637.13;4987969;28;20505;-52
2023/10/09 12:22:05;;;;;;;0.47;0.20;;;;;;;24.79;48.26;100632.28;4984158;28;20458;-52
2023/10/09 12:24:35;;;;;;;0.50;0.30;;;;;;;24.87;46.17;100637.13;4981223;28;20449;-52
2023/10/09 12:27:02;;;;;;;0.50;0.20;;;;;;;24.97;47.10;100624.47;4983700;28;20456;-52
2023/10/09 12:29:30;;;;;;;0.50;0.20;;;;;;;25.11;47.21;100624.22;4987558;28;20505;-52
2023/10/09 12:31:59;;;;;;;0.50;0.20;;;;;;;25.37;46.93;100620.16;4985486;28;20541;-52
2023/10/09 12:34:26;;;;;;;0.50;0.20;;;;;;;25.05;47.51;100622.88;4981020;28;20507;-52
2023/10/09 12:36:54;;;;;;;0.50;0.23;;;;;;;25.36;47.41;100615.72;4982667;28;20459;-52
2023/10/09 12:39:23;;;;;;;0.50;0.30;;;;;;;25.04;47.67;100610.25;4987314;28;20839;-52
2023/10/09 12:41:53;;;;;;;0.50;0.20;;;;;;;25.47;45.77;100606.59;4986337;28;20457;-52
2023/10/09 12:44:20;;;;;;;0.50;0.30;;;;;;;25.66;46.21;100604.03;4980823;28;20540;-52
2023/10/09 12:46:51;;;;;;;0.40;0.20;;;;;;;25.48;48.40;100602.88;4981704;28;20490;-51
2023/10/09 12:49:24;;;;;;;1.37;1.37;;;;;;;25.48;47.17;100600.16;4980862;28;20958;-52
2023/10/09 12:51:55;;;;;;;0.50;0.20;;;;;;;25.07;47.26;100590.94;4980405;28;20852;-52
2023/10/09 12:54:26;;;;;;;2.80;2.10;;;;;;;25.38;46.37;100597.41;4985673;28;20549;-52
2023/10/09 12:56:57;;;;;;;0.50;0.20;;;;;;;25.47;45.21;100597.56;4987148;28;20445;-52
2023/10/09 12:59:24;;;;;;;0.50;0.20;;;;;;;25.65;46.11;100588.72;4974099;28;20573;-51
2023/10/09 13:01:57;;;;;;;0.50;0.30;;;;;;;25.68;45.95;100587.56;4977242;28;20819;-52
2023/10/09 13:04:31;;;;;;;0.50;0.30;;;;;;;25.71;46.04;100586.47;4984081;28;20450;-52
2023/10/09 13:07:03;;;;;;;1.43;0.93;;;;;;;25.56;47.00;100586.75;4987800;28;20504;-52
2023/10/09 13:09:36;;;;;;;0.50;0.20;;;;;;;25.81;47.32;100584.69;4987130;28;20557;-52
2023/10/09 13:12:03;;;;;;;0.50;0.50;;;;;;;26.14;45.14;100580.81;4968306;28;20450;-52
2023/10/09 13:14:33;;;;;;;0.50;0.20;;;;;;;26.04;45.29;100591.69;4979820;28;20461;-52
2023/10/09 13:17:03;;;;;;;0.50;0.20;;;;;;;26.14;45.97;100595.31;4985768;28;20446;-52
2023/10/09 13:19:34;;;;;;;0.50;0.20;;;;;;;25.84;45.61;100592.56;4986870;28;20480;-52
2023/10/09 13:22:03;;;;;;;0.50;0.23;;;;;;;25.88;46.44;100573.09;4982384;28;20462;-51
2023/10/09 13:24:30;;;;;;;0.50;0.20;;;;;;;26.09;44.97;100580.38;4979903;28;20453;-52
2023/10/09 13:27:04;;;;;;;0.50;0.20;;;;;;;25.86;46.11;100579.66;4983906;28;20497;-52
2023/10/09 13:29:33;;;;;;;0.50;0.30;;;;;;;26.13;46.07;100576.38;4986447;28;20994;-52
2023/10/09 13:32:02;;;;;;;0.50;0.27;;;;;;;26.04;46.25;100572.63;4983921;28;21032;-52
2023/10/09 13:34:29;;;;;;;1.23;1.20;;;;;;;26.13;45.64;100577.22;4979975;28;20938;-52
2023/10/09 13:36:59;;;;;;;0.47;0.20;;;;;;;26.06;47.47;100577.94;4982112;28;20454;-52
2023/10/09 13:39:26;;;;;;;0.50;0.30;;;;;;;26.15;45.87;100579.81;4986902;28;20471;-52
2023/10/09 13:41:58;;;;;;;0.53;0.40;;;;;;;25.92;46.82;100579.16;4967990;28;20862;-52
2023/10/09 13:44:28;;;;;;;0.50;0.20;;;;;;;25.88;47.35;100564.91;4979703;28;20994;-52
2023/10/09 13:46:56;;;;;;;0.50;0.50;;;;;;;25.72;48.66;100574.56;4979786;28;20498;-52
2023/10/09 13:49:23;;;;;;;0.50;0.20;;;;;;;26.02;47.48;100574.59;4967779;28;20904;-52
2023/10/09 13:51:50;;;;;;;0.50;0.20;;;;;;;26.07;47.62;100579.66;4979617;28;20482;-52
2023/10/09 13:54:21;;;;;;;0.50;0.30;;;;;;;25.76;48.52;100576.03;4985714;28;20537;-52
2023/10/09 13:56:52;;;;;;;0.50;0.30;;;;;;;25.90;48.56;100564.78;4986294;28;20452;-52
2023/10/09 13:59:25;;;;;;;0.50;0.30;;;;;;;26.14;48.45;100570.78;4973702;28;20480;-52
2023/10/09 14:01:56;;;;;;;0.50;0.30;;;;;;;26.09;48.96;100570.34;4975694;28;20879;-52
2023/10/09 14:04:23;;;;;;;0.50;0.30;;;;;;;26.08;49.12;100571.34;4983190;28;20529;-52
2023/10/09 14:07:00;;;;;;;0.50;0.20;;;;;;;26.22;48.33;100565.50;4986510;28;20851;-52
2023/10/09 14:09:28;;;;;;;0.50;0.20;;;;;;;25.94;49.97;100561.66;4984628;28;20473;-52